Live aus Altenrhein
LIVE
LSZR 262020Z AUTO VRB02KT CAVOK 20/10 Q1018

People´s Info Center:

Öffnungszeiten Mo-Fr, 8-18 Uhr

 

info@peoples.ch

 
Aus Österreich:

T: +43 (0)5572 203 610

 

Aus CH / LI / DE:

T: +41 (0)71 858 51 60

 

Webcam Flughafen St.Gallen-Altenrhein

Live-Bilder und Zeitraffer LSZR / ACH.

 

Live aus Altenrhein
LIVE
LSZR 262020Z AUTO VRB02KT CAVOK 20/10 Q1018
Zeitraffer heute
2017-05-26 00:14:53
LSZR 252150Z AUTO VRB03KT CAVOK 16/09 Q1021
Zeitraffer gestern
2017-05-25 00:14:51
LSZR 242150Z AUTO VRB03KT 9999 OVC050 OVC100 16/12 Q1023
Zeitraffer vor 3 Tagen
2017-05-23 00:14:57
LSZR 222150Z AUTO 01002KT 9999 BKN080 15/09 Q1017